createdAt,value
2023-04-01T00:43:38.547Z,9.308932
2023-04-01T00:44:04.521Z,9.309041
2023-04-01T00:59:35.858Z,9.309016
2023-04-01T01:00:36.156Z,9.308765
2023-04-01T01:01:36.378Z,9.308985
2023-04-01T01:13:08.993Z,9.308908
2023-04-01T01:14:09.187Z,9.308910
2023-04-01T01:15:09.361Z,9.308907
2023-04-01T01:16:09.303Z,9.308992
2023-04-01T01:17:10.648Z,9.309014
2023-04-01T01:18:09.430Z,9.308969
2023-04-01T11:47:54.584Z,9.309063
2023-04-01T12:18:55.465Z,9.309093
2023-04-01T12:29:27.836Z,9.309002
2023-04-01T12:30:27.632Z,9.309019
2023-04-01T12:31:27.491Z,9.309051
2023-04-01T12:32:28.209Z,9.309064
2023-04-01T12:33:27.615Z,9.309003
2023-04-01T12:34:28.007Z,9.309015
2023-04-01T12:35:27.616Z,9.309011
2023-04-01T12:36:27.782Z,9.309068
2023-04-01T12:37:27.933Z,9.309089
2023-04-01T12:38:27.749Z,9.309036
2023-04-01T12:39:27.839Z,9.309003
2023-04-01T12:40:27.671Z,9.309023
2023-04-01T12:41:27.295Z,9.309009
2023-04-01T12:42:27.496Z,9.308986
2023-04-01T12:43:27.690Z,9.308958
2023-04-01T12:44:28.019Z,9.308932
2023-04-01T12:45:27.368Z,9.308968
2023-04-01T12:46:27.998Z,9.309059
2023-04-01T12:47:27.932Z,9.309015
2023-04-01T12:48:28.213Z,9.308971
2023-04-01T12:49:28.585Z,9.308975
2023-04-01T12:50:27.546Z,9.308984
2023-04-01T12:51:27.764Z,9.308946
2023-04-01T12:52:28.058Z,9.308949
2023-04-01T12:53:27.482Z,9.309002
2023-04-01T12:54:27.322Z,9.309014
2023-04-01T12:55:27.439Z,9.309007
2023-04-01T12:56:27.868Z,9.308924
2023-04-01T12:57:27.967Z,9.308972
2023-04-01T12:58:27.763Z,9.308900
2023-04-01T12:59:27.721Z,9.308926
2023-04-01T13:00:27.298Z,9.308957
2023-04-01T13:01:27.384Z,9.308974
2023-04-01T13:02:27.321Z,9.308996
2023-04-01T13:03:27.537Z,9.308994
2023-04-01T13:04:27.454Z,9.308972
2023-04-01T13:05:27.883Z,9.309066
2023-04-01T13:06:27.610Z,9.309072
2023-04-01T13:07:27.902Z,9.309116
2023-04-01T13:08:27.801Z,9.309097
2023-04-01T13:09:27.778Z,9.309011
2023-04-01T13:10:27.645Z,9.309010
2023-04-01T13:11:27.656Z,9.308981
2023-04-01T13:12:27.334Z,9.309060
2023-04-01T13:13:27.862Z,9.309184
2023-04-01T13:14:31.923Z,9.309052
2023-04-01T13:15:29.689Z,9.309013
2023-04-01T13:16:27.287Z,9.309044
2023-04-01T13:17:27.272Z,9.308994
2023-04-01T13:18:27.824Z,9.308991
2023-04-01T13:19:27.775Z,9.308988
2023-04-01T13:20:27.305Z,9.308938
2023-04-01T13:21:27.215Z,9.309066
2023-04-01T13:22:27.852Z,9.309058
2023-04-01T13:23:27.260Z,9.308994
2023-04-01T13:24:27.733Z,9.308902
2023-04-01T13:25:27.203Z,9.308910
2023-04-01T13:26:27.063Z,9.308908
2023-04-01T13:27:27.546Z,9.309077
2023-04-01T13:28:27.751Z,9.309006
2023-04-01T13:29:27.509Z,9.308995
2023-04-01T13:30:27.687Z,9.309071
2023-04-01T13:31:27.405Z,9.308879
2023-04-01T13:32:40.848Z,9.309186
2023-04-01T13:33:30.049Z,9.309053
2023-04-01T13:34:27.176Z,9.308955
2023-04-01T13:35:27.564Z,9.309026
2023-04-01T13:36:27.254Z,9.309000
2023-04-01T13:37:27.726Z,9.308937
2023-04-01T13:38:27.466Z,9.308868
2023-04-01T13:39:27.557Z,9.308895
2023-04-01T13:40:27.583Z,9.308955
2023-04-01T13:41:27.633Z,9.309024
2023-04-01T13:42:27.834Z,9.309004
2023-04-01T13:43:27.289Z,9.308899
2023-04-01T13:44:28.027Z,9.308934
2023-04-01T13:45:27.349Z,9.308940
2023-04-01T13:46:27.193Z,9.308946
2023-04-01T13:47:27.489Z,9.308960
2023-04-01T13:48:27.079Z,9.308976
2023-04-01T13:49:27.124Z,9.308948
2023-04-01T13:50:27.186Z,9.308920
2023-04-01T13:51:27.838Z,9.309093
2023-04-01T13:52:27.653Z,9.309003
2023-04-01T13:53:26.996Z,9.308961
2023-04-01T13:54:27.046Z,9.308995
2023-04-01T13:55:27.403Z,9.309064
2023-04-01T13:56:27.150Z,9.309100
2023-04-01T13:57:27.129Z,9.309066
2023-04-01T13:58:27.222Z,9.308997
2023-04-01T13:59:27.456Z,9.309059
2023-04-01T14:00:27.412Z,9.308924
2023-04-01T14:01:27.043Z,9.308971
2023-04-01T14:02:27.204Z,9.309085
2023-04-01T14:03:26.947Z,9.309076
2023-04-01T14:04:28.015Z,9.309054
2023-04-01T14:05:39.888Z,9.308979
2023-04-01T14:06:29.003Z,9.309050
2023-04-01T14:07:26.840Z,9.309093
2023-04-01T14:08:27.087Z,9.309109
2023-04-01T14:09:27.595Z,9.308994
2023-04-01T14:10:27.198Z,9.308975
2023-04-01T14:11:27.528Z,9.308997
2023-04-01T14:12:26.933Z,9.308916
2023-04-01T14:13:27.153Z,9.309117
2023-04-01T14:14:26.839Z,9.309060
2023-04-01T14:15:26.815Z,9.308978
2023-04-01T14:16:26.858Z,9.308959
2023-04-01T14:17:26.926Z,9.309010
2023-04-01T14:18:27.068Z,9.309155
2023-04-01T14:19:26.904Z,9.309024
2023-04-01T14:20:27.575Z,9.309079
2023-04-01T14:21:26.993Z,9.309065
2023-04-01T14:22:26.929Z,9.309134
2023-04-01T14:23:26.711Z,9.309073
2023-04-01T14:24:26.720Z,9.309105
2023-04-01T14:25:26.733Z,9.309150
2023-04-01T14:26:26.635Z,9.309103
2023-04-01T14:27:27.050Z,9.309064
2023-04-01T14:28:27.356Z,9.309017
2023-04-01T14:29:26.788Z,9.309142
2023-04-01T14:30:26.752Z,9.309115
2023-04-01T14:31:26.813Z,9.309142
2023-04-01T14:32:26.771Z,9.309084
2023-04-01T14:33:26.968Z,9.309112
2023-04-01T14:34:26.826Z,9.309075
2023-04-01T14:35:26.820Z,9.309114
2023-04-01T14:36:26.663Z,9.308984
2023-04-01T14:37:27.703Z,9.309123
2023-04-01T14:38:27.014Z,9.309119
2023-04-01T14:39:26.516Z,9.308992
2023-04-01T14:40:26.539Z,9.309031
2023-04-01T14:41:26.744Z,9.309049
2023-04-01T14:42:26.778Z,9.309128
2023-04-01T14:43:26.649Z,9.309117
2023-04-01T14:44:26.633Z,9.309040
2023-04-01T14:45:27.024Z,9.308949
2023-04-01T14:46:26.895Z,9.309036
2023-04-01T14:47:26.997Z,9.309037
2023-04-01T14:48:27.306Z,9.308982
2023-04-01T14:49:27.532Z,9.309038
2023-04-01T14:50:26.737Z,9.309093
2023-04-01T14:51:26.643Z,9.309062
2023-04-01T14:52:26.611Z,9.309080
2023-04-01T14:53:26.694Z,9.309165
2023-04-01T14:54:26.733Z,9.309078
2023-04-01T14:55:27.124Z,9.309057
2023-04-01T14:56:26.926Z,9.309052
2023-04-01T14:57:26.688Z,9.309078
2023-04-01T14:58:26.624Z,9.309023
2023-04-01T14:59:26.674Z,9.309011
2023-04-01T15:00:26.563Z,9.309032
2023-04-01T15:01:26.376Z,9.309047
2023-04-01T15:02:26.514Z,9.309019
2023-04-01T15:03:26.331Z,9.309091
2023-04-01T15:04:26.583Z,9.309198
2023-04-01T15:05:26.444Z,9.309105
2023-04-01T15:06:26.570Z,9.309121
2023-04-01T15:07:26.473Z,9.309096
2023-04-01T15:08:26.522Z,9.309121
2023-04-01T15:09:26.487Z,9.309071
2023-04-01T15:10:26.489Z,9.309099
2023-04-01T15:11:26.520Z,9.309061
2023-04-01T15:12:26.741Z,9.309063
2023-04-01T15:13:26.572Z,9.308999
2023-04-01T15:14:26.424Z,9.309050
2023-04-01T15:15:26.551Z,9.309017
2023-04-01T15:16:26.530Z,9.309049
2023-04-01T15:17:26.624Z,9.309031
2023-04-01T15:18:26.426Z,9.309019
2023-04-01T15:19:26.337Z,9.309028
2023-04-01T15:20:27.420Z,9.309015
2023-04-01T15:21:27.294Z,9.309016
2023-04-01T15:22:26.423Z,9.308996
2023-04-01T15:23:26.202Z,9.309045
2023-04-01T15:24:26.251Z,9.309020
2023-04-01T15:25:26.207Z,9.308965
2023-04-01T15:26:26.320Z,9.308996
2023-04-01T15:27:26.641Z,9.309041
2023-04-01T15:28:26.541Z,9.308985
2023-04-01T15:29:26.331Z,9.308979
2023-04-01T15:30:26.590Z,9.309004
2023-04-01T15:31:26.788Z,9.309109
2023-04-01T15:32:26.434Z,9.309021
2023-04-01T15:33:26.483Z,9.309066
2023-04-01T15:34:26.359Z,9.308962
2023-04-01T15:35:26.278Z,9.309112
2023-04-01T15:36:26.313Z,9.309118
2023-04-01T15:37:26.251Z,9.309091
2023-04-01T15:38:27.328Z,9.309057
2023-04-01T15:39:26.535Z,9.309084
2023-04-01T15:40:26.359Z,9.309062
2023-04-01T15:41:26.242Z,9.309057
2023-04-01T15:42:26.163Z,9.309035
2023-04-01T15:43:26.258Z,9.309003
2023-04-01T15:44:26.153Z,9.309037
2023-04-01T15:45:26.075Z,9.308979
2023-04-01T15:46:27.124Z,9.308959
2023-04-01T15:47:26.233Z,9.309003
2023-04-01T15:48:26.098Z,9.309018
2023-04-01T15:49:26.101Z,9.309053
2023-04-01T15:50:26.145Z,9.309063
2023-04-01T15:51:26.128Z,9.309066
2023-04-01T15:52:26.348Z,9.309047
2023-04-01T15:53:26.492Z,9.309126
2023-04-01T15:54:26.223Z,9.309093
2023-04-01T15:55:26.274Z,9.309108
2023-04-01T15:56:26.140Z,9.309106
2023-04-01T15:57:26.406Z,9.309072
2023-04-01T15:58:26.199Z,9.309051
2023-04-01T15:59:26.933Z,9.309126
2023-04-01T16:00:26.165Z,9.309128
2023-04-01T16:01:26.260Z,9.309123
2023-04-01T16:02:26.170Z,9.309068
2023-04-01T16:03:26.106Z,9.309033
2023-04-01T16:04:26.108Z,9.309022
2023-04-01T16:05:26.522Z,9.309051
2023-04-01T16:06:26.198Z,9.309031
2023-04-01T16:07:25.969Z,9.309069
2023-04-01T16:08:25.956Z,9.309082
2023-04-01T16:09:25.988Z,9.309099
2023-04-01T16:10:59.827Z,9.309127
2023-04-01T16:11:25.844Z,9.309108
2023-04-01T16:12:25.902Z,9.309087
2023-04-01T16:13:26.200Z,9.309122
2023-04-01T16:14:30.091Z,9.309131
2023-04-01T16:15:25.980Z,9.309084
2023-04-01T16:16:26.038Z,9.309084
2023-04-01T16:17:26.138Z,9.309078
2023-04-01T16:18:25.947Z,9.309107
2023-04-01T16:19:26.069Z,9.309128
2023-04-01T16:20:26.095Z,9.309187
2023-04-01T16:21:26.393Z,9.309109
2023-04-01T16:22:25.970Z,9.309138
2023-04-01T16:23:26.057Z,9.309093
2023-04-01T16:24:26.049Z,9.309087
2023-04-01T16:25:25.951Z,9.309169
2023-04-01T16:26:26.239Z,9.309194
2023-04-01T16:27:25.963Z,9.309119
2023-04-01T16:28:26.147Z,9.309073
2023-04-01T16:29:25.947Z,9.309054
2023-04-01T16:30:25.940Z,9.309101
2023-04-01T16:31:25.740Z,9.309041
2023-04-01T16:32:25.861Z,9.309110
2023-04-01T16:33:25.859Z,9.309087
2023-04-01T16:34:25.731Z,9.309055
2023-04-01T16:35:25.784Z,9.309080
2023-04-01T16:36:26.000Z,9.309163
2023-04-01T16:37:25.745Z,9.309154
2023-04-01T16:38:25.884Z,9.309055
2023-04-01T16:39:25.759Z,9.309093
2023-04-01T16:40:25.897Z,9.309067
2023-04-01T16:41:25.805Z,9.309039
2023-04-01T16:42:25.859Z,9.308989
2023-04-01T16:43:26.277Z,9.308990
2023-04-01T16:44:25.876Z,9.309051
2023-04-01T16:45:25.907Z,9.309043
2023-04-01T16:46:25.863Z,9.309101
2023-04-01T16:47:26.033Z,9.309048
2023-04-01T16:48:25.752Z,9.308994
2023-04-01T16:49:26.001Z,9.309072
2023-04-01T16:50:26.051Z,9.309033
2023-04-01T16:51:26.243Z,9.309033
2023-04-01T16:52:25.659Z,9.309011
2023-04-01T16:53:25.910Z,9.308901
2023-04-01T16:54:25.890Z,9.308928
2023-04-01T16:55:26.110Z,9.309064
2023-04-01T16:56:26.957Z,9.309061
2023-04-01T16:57:26.042Z,9.309120
2023-04-01T16:58:25.977Z,9.309096
2023-04-01T16:59:26.132Z,9.309011
2023-04-01T17:00:26.085Z,9.308963
2023-04-01T17:01:26.349Z,9.308907
2023-04-01T17:02:26.484Z,9.308992
2023-04-01T17:03:25.877Z,9.308996
2023-04-01T17:04:25.949Z,9.308988
2023-04-01T17:05:26.269Z,9.308974
2023-04-01T17:06:25.787Z,9.308967
2023-04-01T17:07:25.611Z,9.309036
2023-04-01T17:08:25.507Z,9.308976
2023-04-01T17:09:25.652Z,9.308938
2023-04-01T17:10:26.009Z,9.308948
2023-04-01T17:11:25.620Z,9.309011
2023-04-01T17:12:25.525Z,9.309013
2023-04-01T17:13:25.876Z,9.309038
2023-04-01T17:14:25.865Z,9.309021
2023-04-01T17:15:25.939Z,9.309005
2023-04-01T17:16:25.930Z,9.308942
2023-04-01T17:17:26.210Z,9.308936
2023-04-01T17:18:26.227Z,9.308956
2023-04-01T17:19:26.069Z,9.308918
2023-04-01T17:20:27.099Z,9.308928
2023-04-01T17:21:26.480Z,9.308931
2023-04-01T17:22:26.132Z,9.308853
2023-04-01T17:23:26.437Z,9.308895
2023-04-01T17:24:26.168Z,9.308854
2023-04-01T17:25:26.206Z,9.308915
2023-04-01T17:26:26.082Z,9.308966
2023-04-01T17:27:26.176Z,9.309004
2023-04-01T17:28:25.954Z,9.308926
2023-04-01T17:29:26.142Z,9.309018
2023-04-01T17:30:26.126Z,9.309027
2023-04-01T17:31:25.996Z,9.308984
2023-04-01T17:32:26.254Z,9.308915
2023-04-01T17:33:26.082Z,9.308951
2023-04-01T17:34:26.146Z,9.309003
2023-04-01T17:35:26.247Z,9.308957
2023-04-01T17:36:26.346Z,9.308931
2023-04-01T17:37:26.183Z,9.309013
2023-04-01T17:38:26.428Z,9.309036
2023-04-01T17:43:21.168Z,9.308787
2023-04-01T17:44:21.355Z,9.308750
2023-04-01T17:45:21.039Z,9.308810
2023-04-01T17:46:21.211Z,9.308837
2023-04-01T17:47:21.189Z,9.308766
2023-04-01T17:48:21.240Z,9.308707
2023-04-01T17:49:21.194Z,9.308844
2023-04-01T17:50:21.200Z,9.308917
2023-04-01T17:51:20.982Z,9.308967
2023-04-01T17:52:20.865Z,9.308987
2023-04-01T17:53:21.099Z,9.308940
2023-04-01T17:54:21.415Z,9.309021
2023-04-01T17:55:21.154Z,9.308954
2023-04-01T17:56:21.167Z,9.308842
2023-04-01T17:57:22.189Z,9.308795
2023-04-01T17:58:21.140Z,9.308947
2023-04-01T17:59:20.842Z,9.308954
2023-04-01T18:00:22.953Z,9.309047
2023-04-01T18:01:21.151Z,9.308930
2023-04-01T18:02:21.115Z,9.308929
2023-04-01T18:03:21.360Z,9.309031
2023-04-01T18:04:21.163Z,9.309009
2023-04-01T18:05:21.154Z,9.309047
2023-04-01T18:06:20.996Z,9.308985
2023-04-01T18:07:21.087Z,9.308974
2023-04-01T18:08:20.915Z,9.308934
2023-04-01T18:09:21.283Z,9.308994
2023-04-01T18:10:20.816Z,9.308955
2023-04-01T18:11:21.040Z,9.309008
2023-04-01T18:12:20.904Z,9.309010
2023-04-01T18:13:20.743Z,9.309072
2023-04-01T18:14:20.790Z,9.309014
2023-04-01T18:15:21.018Z,9.308990
2023-04-01T18:16:20.881Z,9.309084
2023-04-01T18:17:20.690Z,9.309043
2023-04-01T18:18:20.772Z,9.308944
2023-04-01T18:19:21.317Z,9.309072
2023-04-01T18:20:21.804Z,9.309110
2023-04-01T18:21:21.345Z,9.308997
2023-04-01T18:22:20.969Z,9.308987
2023-04-01T18:23:20.759Z,9.308862
2023-04-01T18:24:20.659Z,9.308911
2023-04-01T18:25:20.755Z,9.308910
2023-04-01T18:26:20.657Z,9.308930
2023-04-01T18:27:22.128Z,9.308865
2023-04-01T18:28:20.453Z,9.308914
2023-04-01T18:29:20.750Z,9.308845
2023-04-01T18:30:20.823Z,9.309039
2023-04-01T18:31:20.733Z,9.309063
2023-04-01T18:32:21.007Z,9.309004
2023-04-01T18:33:20.996Z,9.309138
2023-04-01T18:34:20.875Z,9.309121
2023-04-01T18:35:20.690Z,9.309057
2023-04-01T18:36:20.921Z,9.309000
2023-04-01T18:37:21.912Z,9.309103
2023-04-01T18:38:20.439Z,9.309052
2023-04-01T18:39:20.569Z,9.309162
2023-04-01T18:40:20.415Z,9.309108
2023-04-01T18:41:20.501Z,9.309061
2023-04-01T18:42:22.205Z,9.309001
2023-04-01T18:43:21.670Z,9.309051
2023-04-01T18:44:20.361Z,9.308950
2023-04-01T18:45:21.075Z,9.308895
2023-04-01T18:46:20.777Z,9.309063
2023-04-01T18:47:20.447Z,9.309141
2023-04-01T18:48:20.812Z,9.309128
2023-04-01T18:49:20.819Z,9.309249
2023-04-01T18:50:20.772Z,9.309178
2023-04-01T18:51:20.760Z,9.309023
2023-04-01T18:52:21.029Z,9.309143
2023-04-01T18:53:20.825Z,9.309023
2023-04-01T18:54:20.940Z,9.309069
2023-04-01T18:55:20.564Z,9.309007
2023-04-01T18:56:21.632Z,9.309018
2023-04-01T18:57:20.673Z,9.308990
2023-04-01T18:58:20.542Z,9.309072
2023-04-01T18:59:20.764Z,9.309067
2023-04-01T19:00:20.825Z,9.308880
2023-04-01T19:01:20.752Z,9.309079
2023-04-01T19:02:21.626Z,9.308862
2023-04-01T19:03:20.698Z,9.308875
2023-04-01T19:04:20.571Z,9.308949
2023-04-01T19:05:20.828Z,9.308883
2023-04-01T19:06:20.769Z,9.308895
2023-04-01T19:07:20.639Z,9.308867
2023-04-01T19:08:20.590Z,9.308953
2023-04-01T19:09:20.505Z,9.309088
2023-04-01T19:10:20.341Z,9.308992
2023-04-01T19:11:20.241Z,9.308947
2023-04-01T19:12:20.290Z,9.309075
2023-04-01T19:13:20.478Z,9.309105
2023-04-01T19:14:20.448Z,9.308986
2023-04-01T19:15:20.253Z,9.308847
2023-04-01T19:16:20.494Z,9.309037
2023-04-01T19:17:20.112Z,9.309039
2023-04-01T19:18:20.479Z,9.309023
2023-04-01T19:19:20.579Z,9.308989
2023-04-01T19:20:20.821Z,9.309072
2023-04-01T19:21:20.401Z,9.309060
2023-04-01T19:22:20.022Z,9.309050
2023-04-01T19:23:20.244Z,9.309099
2023-04-01T19:24:20.645Z,9.309166
2023-04-01T19:25:20.126Z,9.309042
2023-04-01T19:26:20.367Z,9.309037
2023-04-01T19:27:20.737Z,9.309107
2023-04-01T19:28:20.247Z,9.309350
2023-04-01T19:29:20.376Z,9.309276
2023-04-01T19:30:20.450Z,9.309191
2023-04-01T19:31:20.393Z,9.309089
2023-04-01T19:32:20.824Z,9.309203
2023-04-01T19:33:20.495Z,9.309162
2023-04-01T19:34:20.414Z,9.309008
2023-04-01T19:35:20.343Z,9.308948
2023-04-01T19:36:20.338Z,9.309021
2023-04-01T19:37:20.092Z,9.308988
2023-04-01T19:38:20.565Z,9.309019
2023-04-01T19:39:20.334Z,9.309000
2023-04-01T19:40:20.083Z,9.309085
2023-04-01T19:41:20.303Z,9.309063
2023-04-01T19:42:20.306Z,9.309125
2023-04-01T19:43:20.636Z,9.309160
2023-04-01T19:44:20.816Z,9.309044
2023-04-01T19:45:20.296Z,9.309112
2023-04-01T19:46:20.420Z,9.309038
2023-04-01T19:47:20.433Z,9.308909
2023-04-01T19:48:20.172Z,9.309032
2023-04-01T19:49:20.290Z,9.309172
2023-04-01T19:50:20.271Z,9.309177
2023-04-01T19:51:20.240Z,9.309134
2023-04-01T19:52:20.133Z,9.309123
2023-04-01T19:53:20.285Z,9.309208
2023-04-01T19:54:21.596Z,9.309196
2023-04-01T19:55:20.158Z,9.309150
2023-04-01T19:56:20.129Z,9.309138
2023-04-01T19:57:20.117Z,9.309113
2023-04-01T19:58:20.239Z,9.309077
2023-04-01T19:59:20.309Z,9.309098
2023-04-01T20:00:21.834Z,9.309055
2023-04-01T20:01:20.293Z,9.309052
2023-04-01T20:02:20.325Z,9.309195
2023-04-01T20:03:20.337Z,9.309145
2023-04-01T20:04:20.070Z,9.309158
2023-04-01T20:05:20.203Z,9.309181
2023-04-01T20:06:20.199Z,9.309182
2023-04-01T20:07:21.294Z,9.309175
2023-04-01T20:08:19.968Z,9.309130
2023-04-01T20:09:20.115Z,9.309134
2023-04-01T20:10:20.625Z,9.309188
2023-04-01T20:11:20.444Z,9.309185
2023-04-01T20:12:20.103Z,9.309101
2023-04-01T20:13:20.149Z,9.309005
2023-04-01T20:14:20.100Z,9.309111
2023-04-01T20:15:20.021Z,9.309168
2023-04-01T20:16:20.294Z,9.309140
2023-04-01T20:17:20.057Z,9.309163
2023-04-01T20:18:20.183Z,9.309135
2023-04-01T20:19:20.072Z,9.309159
2023-04-01T20:20:19.982Z,9.309165
2023-04-01T20:21:20.522Z,9.309216
2023-04-01T20:22:20.147Z,9.309217
2023-04-01T20:23:20.443Z,9.309143
2023-04-01T20:24:20.101Z,9.309109
2023-04-01T20:28:42.674Z,9.309191
2023-04-01T20:34:38.737Z,9.309151
2023-04-01T20:35:38.699Z,9.309140
2023-04-01T20:36:38.572Z,9.309094
2023-04-01T20:37:38.885Z,9.309112
2023-04-01T20:38:38.612Z,9.309148
2023-04-01T20:39:38.587Z,9.309169
2023-04-01T20:40:38.585Z,9.309150
2023-04-01T20:41:38.524Z,9.309104
2023-04-01T20:42:38.476Z,9.309125
2023-04-01T20:43:38.974Z,9.309090
2023-04-01T20:44:38.831Z,9.309145
2023-04-01T20:45:38.729Z,9.309220
2023-04-01T20:46:38.251Z,9.309106
2023-04-01T20:47:38.470Z,9.309074
2023-04-01T20:48:38.602Z,9.309048
2023-04-01T20:49:38.456Z,9.309052
2023-04-01T20:50:38.304Z,9.309065
2023-04-01T20:51:38.195Z,9.309096
2023-04-01T20:52:38.510Z,9.309096
2023-04-01T20:53:38.500Z,9.309065
2023-04-01T20:54:38.519Z,9.309076
2023-04-01T20:55:38.391Z,9.309028
2023-04-01T20:56:38.246Z,9.309055
2023-04-01T20:57:38.482Z,9.309057
2023-04-01T20:58:38.450Z,9.309077
2023-04-01T20:59:39.588Z,9.309118
2023-04-01T21:00:38.200Z,9.309066
2023-04-01T21:01:39.305Z,9.309127
2023-04-01T21:02:38.394Z,9.309135
2023-04-01T21:03:38.255Z,9.309109
2023-04-01T21:04:38.242Z,9.309086
2023-04-01T21:05:38.441Z,9.309141
2023-04-01T21:06:38.217Z,9.309184
2023-04-01T21:07:38.452Z,9.309127
2023-04-01T21:08:39.445Z,9.309159
2023-04-01T21:09:38.319Z,9.309144
2023-04-01T21:10:38.646Z,9.309134
2023-04-01T21:16:36.337Z,9.309114
2023-04-01T21:17:36.177Z,9.309166
2023-04-01T21:18:36.690Z,9.309131
2023-04-01T21:19:37.409Z,9.309175
2023-04-01T21:20:36.165Z,9.309122
2023-04-01T21:21:35.796Z,9.309068
2023-04-01T21:22:36.138Z,9.309123
2023-04-01T21:23:36.574Z,9.309115
2023-04-01T21:24:36.201Z,9.309098
2023-04-01T21:25:36.592Z,9.309087
2023-04-01T21:26:36.912Z,9.309074
2023-04-01T21:27:35.679Z,9.309119
2023-04-01T21:28:36.136Z,9.309132
2023-04-01T21:32:35.745Z,9.309195
2023-04-01T21:33:36.141Z,9.309135
2023-04-01T21:34:35.726Z,9.309020
2023-04-01T21:35:36.260Z,9.309116
2023-04-01T21:36:35.777Z,9.308958
2023-04-01T21:37:35.370Z,9.308998
2023-04-01T21:38:36.515Z,9.309116
2023-04-01T21:39:35.273Z,9.309142
2023-04-01T21:40:35.875Z,9.309076
2023-04-01T21:41:35.596Z,9.309046
2023-04-01T21:42:35.425Z,9.309074
2023-04-01T21:43:36.032Z,9.309081
2023-04-01T21:44:35.870Z,9.308971
2023-04-01T21:45:35.946Z,9.309020
2023-04-01T21:46:35.645Z,9.309043
2023-04-01T21:47:35.771Z,9.308990
2023-04-01T21:48:35.703Z,9.308982
2023-04-01T21:49:35.907Z,9.309043
2023-04-01T21:50:35.665Z,9.309134
2023-04-01T21:51:35.542Z,9.309032
2023-04-01T21:52:35.869Z,9.309010
2023-04-01T21:53:35.730Z,9.308980
2023-04-01T21:54:35.862Z,9.309038
2023-04-01T21:55:35.525Z,9.308915
2023-04-01T21:56:35.356Z,9.308945
2023-04-01T21:57:35.970Z,9.309043
2023-04-01T22:01:58.547Z,9.309026
2023-04-01T22:02:58.428Z,9.309010
2023-04-01T22:03:58.337Z,9.309066
2023-04-01T22:04:58.549Z,9.309014
2023-04-01T22:05:58.417Z,9.308958
2023-04-01T22:06:58.479Z,9.309034
2023-04-01T22:07:58.385Z,9.308994
2023-04-01T22:08:58.283Z,9.308949
2023-04-01T22:09:58.240Z,9.308945
2023-04-01T22:14:00.433Z,9.308858
2023-04-01T22:15:00.350Z,9.308944
2023-04-01T22:16:00.499Z,9.308845
2023-04-01T22:17:00.323Z,9.309052
2023-04-01T22:18:00.451Z,9.309057
2023-04-01T22:19:00.416Z,9.309017
2023-04-01T22:20:00.272Z,9.309017
2023-04-01T22:21:00.545Z,9.309089
2023-04-01T22:22:01.378Z,9.309135
2023-04-01T22:23:00.473Z,9.309082
2023-04-01T22:24:00.757Z,9.309093
2023-04-01T22:25:00.400Z,9.309207
2023-04-01T22:26:00.495Z,9.309145
2023-04-01T22:27:00.437Z,9.309228
2023-04-01T22:28:00.868Z,9.309318
2023-04-01T22:29:00.732Z,9.309229
2023-04-01T22:30:00.522Z,9.309218
2023-04-01T22:31:00.576Z,9.309106
2023-04-01T22:32:00.564Z,9.309072
2023-04-01T22:33:00.523Z,9.309047
2023-04-01T22:34:01.154Z,9.309164
2023-04-01T22:35:00.570Z,9.309040
2023-04-01T22:36:00.367Z,9.308983
2023-04-01T22:37:00.316Z,9.308871
2023-04-01T22:38:00.234Z,9.308693
2023-04-01T22:39:00.635Z,9.308825
2023-04-01T22:40:00.542Z,9.308816
2023-04-01T22:41:00.357Z,9.308869
2023-04-01T22:42:00.312Z,9.308876
2023-04-01T22:43:00.330Z,9.308933
2023-04-01T22:44:00.315Z,9.308941
2023-04-01T22:45:00.888Z,9.309020
2023-04-01T22:46:00.561Z,9.308834
2023-04-01T22:47:00.291Z,9.308905
2023-04-01T22:48:00.300Z,9.309076
2023-04-01T22:49:00.673Z,9.309232
2023-04-01T22:50:00.482Z,9.309164
2023-04-01T22:51:00.843Z,9.309067
2023-04-01T22:58:55.165Z,9.309087
2023-04-01T23:30:42.759Z,9.309082
